Hurlburt Field, Florida
Current Conditions -  °F | °C
As of 11:58 AM on Saturday 25 Oct 2014 (Local Time) from KHRT Reporting Station
Clear Clear  
Wind Chill: 75°   Ceiling: Unl
Heat Index: 75°   Visibility: 10mi
Dew Point: 40°   Wind: 18mph
Humidity: 28%   Direction: 10°N
Pressure: 30.07"   Gusts: NA
Location:  30.43°N, 86.69°W
Report Text: KHRT 251658Z AUTO 01016KT 10SM CLR 24/04 A3007 RMK AO2 SLP184 T02390044 RVRNO $
Loading
Personal Weather Stations






























Interactive Weather Map New forecast layout! Learn more

10-Day Weather Forecast

Advertisements
Track Severe Weather on mobile